sensor_id;sensor_type;location;lat;lon;timestamp;pressure;altitude;pressure_sealevel;temperature;humidity
57248;BME280;55809;46.618;10.764;2022-10-16T00:00:42;93381.06;;;13.31;90.32
57248;BME280;55809;46.618;10.764;2022-10-16T00:03:11;93394.22;;;13.32;90.31
57248;BME280;55809;46.618;10.764;2022-10-16T00:05:46;93389.69;;;13.19;91.51
57248;BME280;55809;46.618;10.764;2022-10-16T00:08:14;93377.44;;;13.07;91.47
57248;BME280;55809;46.618;10.764;2022-10-16T00:10:44;93414.41;;;13.28;91.76
57248;BME280;55809;46.618;10.764;2022-10-16T00:13:10;93412.47;;;13.28;91.80
57248;BME280;55809;46.618;10.764;2022-10-16T00:15:37;93412.88;;;13.27;91.65
57248;BME280;55809;46.618;10.764;2022-10-16T00:18:05;93412.47;;;13.28;91.56
57248;BME280;55809;46.618;10.764;2022-10-16T00:20:34;93414.41;;;13.28;91.44
57248;BME280;55809;46.618;10.764;2022-10-16T00:23:02;93418.66;;;13.29;91.50
57248;BME280;55809;46.618;10.764;2022-10-16T00:25:31;93414.78;;;13.30;91.30
57248;BME280;55809;46.618;10.764;2022-10-16T00:28:02;93406.31;;;13.21;91.23
57248;BME280;55809;46.618;10.764;2022-10-16T00:30:29;93409.78;;;13.25;91.33
57248;BME280;55809;46.618;10.764;2022-10-16T00:32:56;93413.22;;;13.29;91.46
57248;BME280;55809;46.618;10.764;2022-10-16T00:35:23;93417.88;;;13.28;90.99
57248;BME280;55809;46.618;10.764;2022-10-16T00:37:50;93383.22;;;13.05;91.02
57248;BME280;55809;46.618;10.764;2022-10-16T00:40:18;93419.03;;;13.31;91.03
57248;BME280;55809;46.618;10.764;2022-10-16T00:42:45;93420.94;;;13.34;90.72
57248;BME280;55809;46.618;10.764;2022-10-16T00:45:13;93407.34;;;13.37;90.16
57248;BME280;55809;46.618;10.764;2022-10-16T00:47:42;93415.81;;;13.43;90.46
57248;BME280;55809;46.618;10.764;2022-10-16T00:50:27;93430.56;;;13.38;90.90
57248;BME280;55809;46.618;10.764;2022-10-16T00:52:56;93434.09;;;13.32;91.42
57248;BME280;55809;46.618;10.764;2022-10-16T00:55:24;93427.19;;;13.24;91.74
57248;BME280;55809;46.618;10.764;2022-10-16T00:57:52;93425.28;;;13.24;92.34
57248;BME280;55809;46.618;10.764;2022-10-16T01:00:24;93437.22;;;13.30;92.30
57248;BME280;55809;46.618;10.764;2022-10-16T01:02:54;93432.16;;;13.32;91.98
57248;BME280;55809;46.618;10.764;2022-10-16T01:05:22;93433.00;;;13.29;92.07
57248;BME280;55809;46.618;10.764;2022-10-16T01:07:56;93410.28;;;13.09;92.57
57248;BME280;55809;46.618;10.764;2022-10-16T01:10:34;93397.28;;;12.97;92.77
57248;BME280;55809;46.618;10.764;2022-10-16T01:13:06;93435.38;;;13.20;92.64
57248;BME280;55809;46.618;10.764;2022-10-16T01:15:38;93438.09;;;13.20;92.59
57248;BME280;55809;46.618;10.764;2022-10-16T01:18:13;93437.31;;;13.20;92.48
57248;BME280;55809;46.618;10.764;2022-10-16T01:20:45;93435.00;;;13.18;92.62
57248;BME280;55809;46.618;10.764;2022-10-16T01:23:25;93444.31;;;13.17;92.38
57248;BME280;55809;46.618;10.764;2022-10-16T01:26:12;93447.41;;;13.15;92.11
57248;BME280;55809;46.618;10.764;2022-10-16T01:28:49;93435.84;;;13.11;91.65
57248;BME280;55809;46.618;10.764;2022-10-16T01:31:20;93428.50;;;13.08;91.65
57248;BME280;55809;46.618;10.764;2022-10-16T01:33:53;93453.16;;;13.25;91.66
57248;BME280;55809;46.618;10.764;2022-10-16T01:36:26;93452.78;;;13.19;92.13
57248;BME280;55809;46.618;10.764;2022-10-16T01:38:56;93446.28;;;13.13;92.28
57248;BME280;55809;46.618;10.764;2022-10-16T01:41:30;93448.59;;;13.14;92.29
57248;BME280;55809;46.618;10.764;2022-10-16T01:44:03;93446.25;;;13.17;92.06
57248;BME280;55809;46.618;10.764;2022-10-16T01:46:36;93450.50;;;13.18;92.07
57248;BME280;55809;46.618;10.764;2022-10-16T01:49:06;93450.88;;;13.16;91.89
57248;BME280;55809;46.618;10.764;2022-10-16T01:51:35;93456.31;;;13.16;91.95
57248;BME280;55809;46.618;10.764;2022-10-16T01:54:05;93456.31;;;13.16;92.13
57248;BME280;55809;46.618;10.764;2022-10-16T01:56:35;93460.56;;;13.17;92.00
57248;BME280;55809;46.618;10.764;2022-10-16T01:59:09;93459.38;;;13.18;92.23
57248;BME280;55809;46.618;10.764;2022-10-16T02:01:39;93465.53;;;13.22;91.98
57248;BME280;55809;46.618;10.764;2022-10-16T02:04:08;93465.19;;;13.20;91.90
57248;BME280;55809;46.618;10.764;2022-10-16T02:06:35;93459.38;;;13.18;91.37
57248;BME280;55809;46.618;10.764;2022-10-16T02:09:03;93468.66;;;13.21;91.51
57248;BME280;55809;46.618;10.764;2022-10-16T02:11:30;93473.75;;;13.15;92.17
57248;BME280;55809;46.618;10.764;2022-10-16T02:14:01;93423.31;;;12.80;92.81
57248;BME280;55809;46.618;10.764;2022-10-16T02:16:36;93466.38;;;13.15;93.04
57248;BME280;55809;46.618;10.764;2022-10-16T02:19:04;93461.03;;;13.08;92.91
57248;BME280;55809;46.618;10.764;2022-10-16T02:21:35;93458.25;;;13.15;92.80
57248;BME280;55809;46.618;10.764;2022-10-16T02:24:10;93450.56;;;13.10;92.65
57248;BME280;55809;46.618;10.764;2022-10-16T02:26:45;93442.53;;;13.00;92.65
57248;BME280;55809;46.618;10.764;2022-10-16T02:29:21;93454.50;;;13.02;93.32
57248;BME280;55809;46.618;10.764;2022-10-16T02:31:54;93459.88;;;13.06;93.31
57248;BME280;55809;46.618;10.764;2022-10-16T02:34:24;93463.00;;;13.04;93.52
57248;BME280;55809;46.618;10.764;2022-10-16T02:36:53;93455.25;;;13.06;93.37
57248;BME280;55809;46.618;10.764;2022-10-16T02:39:21;93463.34;;;13.10;93.42
57248;BME280;55809;46.618;10.764;2022-10-16T02:41:50;93457.97;;;13.06;93.63
57248;BME280;55809;46.618;10.764;2022-10-16T02:44:17;93460.69;;;13.03;93.98
57248;BME280;55809;46.618;10.764;2022-10-16T02:46:44;93452.97;;;13.01;93.96
57248;BME280;55809;46.618;10.764;2022-10-16T02:49:12;93462.63;;;13.02;94.18
57248;BME280;55809;46.618;10.764;2022-10-16T02:51:39;93420.31;;;12.74;93.84
57248;BME280;55809;46.618;10.764;2022-10-16T02:54:06;93460.72;;;12.99;93.60
57248;BME280;55809;46.618;10.764;2022-10-16T02:56:34;93461.84;;;13.02;93.73
57248;BME280;55809;46.618;10.764;2022-10-16T02:59:02;93464.94;;;13.04;93.30
57248;BME280;55809;46.618;10.764;2022-10-16T03:01:29;93470.72;;;13.06;93.23
57248;BME280;55809;46.618;10.764;2022-10-16T03:03:56;93454.53;;;12.99;93.38
57248;BME280;55809;46.618;10.764;2022-10-16T03:06:24;93466.47;;;13.05;93.36
57248;BME280;55809;46.618;10.764;2022-10-16T03:08:52;93473.41;;;13.09;93.23
57248;BME280;55809;46.618;10.764;2022-10-16T03:11:18;93468.81;;;13.06;93.33
57248;BME280;55809;46.618;10.764;2022-10-16T03:13:46;93461.50;;;12.96;93.20
57248;BME280;55809;46.618;10.764;2022-10-16T03:16:14;93478.47;;;13.07;93.02
57248;BME280;55809;46.618;10.764;2022-10-16T03:18:41;93468.88;;;12.96;93.57
57248;BME280;55809;46.618;10.764;2022-10-16T03:21:07;93447.31;;;12.81;93.55
57248;BME280;55809;46.618;10.764;2022-10-16T03:23:36;93481.25;;;13.00;93.71
57248;BME280;55809;46.618;10.764;2022-10-16T03:26:05;93451.97;;;12.81;93.82
57248;BME280;55809;46.618;10.764;2022-10-16T03:28:33;93457.38;;;12.84;93.74
57248;BME280;55809;46.618;10.764;2022-10-16T03:31:00;93474.28;;;12.96;93.63
57248;BME280;55809;46.618;10.764;2022-10-16T03:33:28;93468.50;;;12.97;93.46
57248;BME280;55809;46.618;10.764;2022-10-16T03:35:55;93468.84;;;12.99;93.51
57248;BME280;55809;46.618;10.764;2022-10-16T03:38:22;93465.38;;;12.99;93.86
57248;BME280;55809;46.618;10.764;2022-10-16T03:40:51;93463.41;;;12.99;93.67
57248;BME280;55809;46.618;10.764;2022-10-16T03:43:18;93414.94;;;12.63;93.41
57248;BME280;55809;46.618;10.764;2022-10-16T03:45:45;93450.34;;;12.90;92.98
57248;BME280;55809;46.618;10.764;2022-10-16T03:48:12;93475.03;;;13.03;93.09
57248;BME280;55809;46.618;10.764;2022-10-16T03:50:39;93480.81;;;13.02;92.71
57248;BME280;55809;46.618;10.764;2022-10-16T03:53:06;93474.63;;;13.01;93.05
57248;BME280;55809;46.618;10.764;2022-10-16T03:55:35;93479.69;;;12.99;93.33
57248;BME280;55809;46.618;10.764;2022-10-16T03:58:05;93472.34;;;13.00;93.35
57248;BME280;55809;46.618;10.764;2022-10-16T04:00:32;93480.06;;;13.01;93.23
57248;BME280;55809;46.618;10.764;2022-10-16T04:02:59;93471.16;;;13.01;92.77
57248;BME280;55809;46.618;10.764;2022-10-16T04:05:26;93475.78;;;13.04;92.38
57248;BME280;55809;46.618;10.764;2022-10-16T04:07:53;93477.69;;;13.07;92.42
57248;BME280;55809;46.618;10.764;2022-10-16T04:10:20;93486.16;;;13.12;92.06
57248;BME280;55809;46.618;10.764;2022-10-16T04:12:47;93481.88;;;13.15;91.75
57248;BME280;55809;46.618;10.764;2022-10-16T04:15:16;93465.75;;;13.01;91.89
57248;BME280;55809;46.618;10.764;2022-10-16T04:17:43;93475.69;;;13.14;91.24
57248;BME280;55809;46.618;10.764;2022-10-16T04:20:10;93481.44;;;13.20;90.63
57248;BME280;55809;46.618;10.764;2022-10-16T04:22:36;93480.31;;;13.18;91.41
57248;BME280;55809;46.618;10.764;2022-10-16T04:25:04;93477.59;;;13.18;91.25
57248;BME280;55809;46.618;10.764;2022-10-16T04:27:32;93480.31;;;13.18;91.37
57248;BME280;55809;46.618;10.764;2022-10-16T04:29:59;93478.78;;;13.17;91.25
57248;BME280;55809;46.618;10.764;2022-10-16T04:32:27;93480.69;;;13.20;91.02
57248;BME280;55809;46.618;10.764;2022-10-16T04:34:54;93482.59;;;13.19;91.32
57248;BME280;55809;46.618;10.764;2022-10-16T04:37:23;93481.84;;;13.19;91.33
57248;BME280;55809;46.618;10.764;2022-10-16T04:39:50;93478.31;;;13.22;91.19
57248;BME280;55809;46.618;10.764;2022-10-16T04:42:18;93472.94;;;13.18;91.32
57248;BME280;55809;46.618;10.764;2022-10-16T04:44:45;93477.19;;;13.19;91.17
57248;BME280;55809;46.618;10.764;2022-10-16T04:47:12;93477.59;;;13.18;91.13
57248;BME280;55809;46.618;10.764;2022-10-16T04:49:41;93480.31;;;13.18;91.06
57248;BME280;55809;46.618;10.764;2022-10-16T04:52:08;93471.78;;;13.15;91.00
57248;BME280;55809;46.618;10.764;2022-10-16T04:54:35;93483.41;;;13.20;91.02
57248;BME280;55809;46.618;10.764;2022-10-16T04:57:02;93479.50;;;13.21;90.73
57248;BME280;55809;46.618;10.764;2022-10-16T04:59:31;93488.09;;;13.12;91.32
57248;BME280;55809;46.618;10.764;2022-10-16T05:01:58;93483.16;;;13.03;92.13
57248;BME280;55809;46.618;10.764;2022-10-16T05:04:25;93478.09;;;13.05;91.85
57248;BME280;55809;46.618;10.764;2022-10-16T05:06:54;93483.53;;;13.02;92.06
57248;BME280;55809;46.618;10.764;2022-10-16T05:09:21;93446.22;;;12.75;91.93
57248;BME280;55809;46.618;10.764;2022-10-16T05:11:48;93491.28;;;13.03;92.14
57248;BME280;55809;46.618;10.764;2022-10-16T05:14:17;93490.47;;;13.06;91.75
57248;BME280;55809;46.618;10.764;2022-10-16T05:16:44;93457.72;;;12.86;91.55
57248;BME280;55809;46.618;10.764;2022-10-16T05:19:13;93495.88;;;13.10;91.79
57248;BME280;55809;46.618;10.764;2022-10-16T05:21:40;93489.72;;;13.02;91.77
57248;BME280;55809;46.618;10.764;2022-10-16T05:24:09;93500.53;;;13.06;92.03
57248;BME280;55809;46.618;10.764;2022-10-16T05:26:37;93484.41;;;12.91;92.15
57248;BME280;55809;46.618;10.764;2022-10-16T05:29:04;93502.81;;;13.11;91.51
57248;BME280;55809;46.618;10.764;2022-10-16T05:31:31;93507.09;;;13.08;91.69
57248;BME280;55809;46.618;10.764;2022-10-16T05:33:58;93505.16;;;13.09;91.42
57248;BME280;55809;46.618;10.764;2022-10-16T05:36:26;93484.00;;;12.89;91.13
57248;BME280;55809;46.618;10.764;2022-10-16T05:38:53;93506.28;;;13.11;90.70
57248;BME280;55809;46.618;10.764;2022-10-16T05:41:22;93508.59;;;13.17;90.11
57248;BME280;55809;46.618;10.764;2022-10-16T05:43:50;93509.75;;;13.15;89.93
57248;BME280;55809;46.618;10.764;2022-10-16T05:46:18;93513.25;;;13.12;90.14
57248;BME280;55809;46.618;10.764;2022-10-16T05:48:45;93486.72;;;12.89;89.95
57248;BME280;55809;46.618;10.764;2022-10-16T05:51:13;93524.56;;;13.04;90.69
57248;BME280;55809;46.618;10.764;2022-10-16T05:53:42;93485.63;;;12.80;90.93
57248;BME280;55809;46.618;10.764;2022-10-16T05:56:11;93523.03;;;12.99;91.40
57248;BME280;55809;46.618;10.764;2022-10-16T05:58:40;93454.53;;;12.47;91.64
57248;BME280;55809;46.618;10.764;2022-10-16T06:01:09;93527.34;;;12.97;91.72
57248;BME280;55809;46.618;10.764;2022-10-16T06:03:37;93536.22;;;12.97;91.45
57248;BME280;55809;46.618;10.764;2022-10-16T06:06:09;93509.97;;;12.87;91.71
57248;BME280;55809;46.618;10.764;2022-10-16T06:08:36;93524.56;;;13.04;91.26
57248;BME280;55809;46.618;10.764;2022-10-16T06:11:04;93528.44;;;13.03;90.92
57248;BME280;55809;46.618;10.764;2022-10-16T06:13:32;93533.09;;;12.99;91.24
57248;BME280;55809;46.618;10.764;2022-10-16T06:16:02;93498.44;;;12.76;91.16
57248;BME280;55809;46.618;10.764;2022-10-16T06:18:30;93545.81;;;13.09;90.59
57248;BME280;55809;46.618;10.764;2022-10-16T06:20:57;93548.47;;;13.12;90.11
57248;BME280;55809;46.618;10.764;2022-10-16T06:23:25;93539.56;;;13.15;89.43
57248;BME280;55809;46.618;10.764;2022-10-16T06:25:53;93544.63;;;13.13;89.90
57248;BME280;55809;46.618;10.764;2022-10-16T06:28:20;93548.44;;;13.16;89.87
57248;BME280;55809;46.618;10.764;2022-10-16T06:30:47;93550.38;;;13.19;89.74
57248;BME280;55809;46.618;10.764;2022-10-16T06:33:15;93508.38;;;12.97;89.15
57248;BME280;55809;46.618;10.764;2022-10-16T06:35:42;93555.00;;;13.26;88.93
57248;BME280;55809;46.618;10.764;2022-10-16T06:38:09;93525.34;;;13.04;88.53
57248;BME280;55809;46.618;10.764;2022-10-16T06:40:36;93569.69;;;13.28;88.34
57248;BME280;55809;46.618;10.764;2022-10-16T06:43:03;93565.03;;;13.29;87.70
57248;BME280;55809;46.618;10.764;2022-10-16T06:45:30;93566.56;;;13.33;87.48
57248;BME280;55809;46.618;10.764;2022-10-16T06:47:57;93568.88;;;13.35;87.53
57248;BME280;55809;46.618;10.764;2022-10-16T06:50:25;93540.34;;;13.12;87.55
57248;BME280;55809;46.618;10.764;2022-10-16T06:52:53;93573.16;;;13.32;87.81
57248;BME280;55809;46.618;10.764;2022-10-16T06:55:21;93580.91;;;13.34;88.24
57248;BME280;55809;46.618;10.764;2022-10-16T06:57:48;93585.13;;;13.35;88.20
57248;BME280;55809;46.618;10.764;2022-10-16T07:00:15;93583.59;;;13.34;88.13
57248;BME280;55809;46.618;10.764;2022-10-16T07:02:42;93591.69;;;13.41;88.24
57248;BME280;55809;46.618;10.764;2022-10-16T07:05:09;93600.56;;;13.45;88.07
57248;BME280;55809;46.618;10.764;2022-10-16T07:07:38;93593.19;;;13.49;87.64
57248;BME280;55809;46.618;10.764;2022-10-16T07:10:05;93600.88;;;13.54;87.53
57248;BME280;55809;46.618;10.764;2022-10-16T07:12:32;93583.16;;;13.43;87.29
57248;BME280;55809;46.618;10.764;2022-10-16T07:15:01;93605.88;;;13.59;87.24
57248;BME280;55809;46.618;10.764;2022-10-16T07:17:28;93616.28;;;13.65;86.90
57248;BME280;55809;46.618;10.764;2022-10-16T07:19:55;93613.19;;;13.66;86.72
57248;BME280;55809;46.618;10.764;2022-10-16T07:22:22;93620.88;;;13.71;86.73
57248;BME280;55809;46.618;10.764;2022-10-16T07:24:51;93620.06;;;13.74;86.46
57248;BME280;55809;46.618;10.764;2022-10-16T07:27:20;93624.66;;;13.81;86.43
57248;BME280;55809;46.618;10.764;2022-10-16T07:29:49;93634.34;;;13.86;86.27
57248;BME280;55809;46.618;10.764;2022-10-16T07:32:17;93638.53;;;13.90;86.06
57248;BME280;55809;46.618;10.764;2022-10-16T07:34:44;93629.19;;;13.95;86.24
57248;BME280;55809;46.618;10.764;2022-10-16T07:37:12;93645.81;;;14.00;86.16
57248;BME280;55809;46.618;10.764;2022-10-16T07:39:39;93640.00;;;14.02;86.21
57248;BME280;55809;46.618;10.764;2022-10-16T07:42:09;93607.63;;;13.80;85.88
57248;BME280;55809;46.618;10.764;2022-10-16T07:44:36;93645.69;;;14.11;86.05
57248;BME280;55809;46.618;10.764;2022-10-16T07:47:03;93646.78;;;14.21;85.13
57248;BME280;55809;46.618;10.764;2022-10-16T07:49:30;93653.66;;;14.32;83.79
57248;BME280;55809;46.618;10.764;2022-10-16T07:51:57;93643.50;;;14.37;84.19
57248;BME280;55809;46.618;10.764;2022-10-16T07:54:25;93627.63;;;14.35;81.48
57248;BME280;55809;46.618;10.764;2022-10-16T07:56:52;93639.50;;;14.52;81.87
57248;BME280;55809;46.618;10.764;2022-10-16T07:59:21;93658.63;;;14.75;80.07
57248;BME280;55809;46.618;10.764;2022-10-16T08:01:49;93643.09;;;14.76;79.43
57248;BME280;55809;46.618;10.764;2022-10-16T08:04:16;93657.03;;;14.78;80.58
57248;BME280;55809;46.618;10.764;2022-10-16T08:06:43;93648.84;;;14.82;79.29
57248;BME280;55809;46.618;10.764;2022-10-16T08:09:10;93661.91;;;14.90;79.90
57248;BME280;55809;46.618;10.764;2022-10-16T08:11:39;93634.16;;;14.75;79.87
57248;BME280;55809;46.618;10.764;2022-10-16T08:14:06;93629.91;;;14.74;80.24
57248;BME280;55809;46.618;10.764;2022-10-16T08:16:34;93626.19;;;14.92;79.25
57248;BME280;55809;46.618;10.764;2022-10-16T08:19:03;93620.16;;;15.08;78.01
57248;BME280;55809;46.618;10.764;2022-10-16T08:21:31;93630.16;;;15.14;78.01
57248;BME280;55809;46.618;10.764;2022-10-16T08:23:59;93622.06;;;15.38;75.87
57248;BME280;55809;46.618;10.764;2022-10-16T08:26:28;93651.66;;;15.86;75.44
57248;BME280;55809;46.618;10.764;2022-10-16T08:28:55;93645.25;;;16.20;72.95
57248;BME280;55809;46.618;10.764;2022-10-16T08:31:23;93642.44;;;16.24;72.77
57248;BME280;55809;46.618;10.764;2022-10-16T08:33:53;93637.53;;;16.15;73.08
57248;BME280;55809;46.618;10.764;2022-10-16T08:36:20;93655.25;;;16.03;72.79
57248;BME280;55809;46.618;10.764;2022-10-16T08:38:48;93653.53;;;16.13;71.79
57248;BME280;55809;46.618;10.764;2022-10-16T08:41:46;93646.72;;;16.45;72.81
57248;BME280;55809;46.618;10.764;2022-10-16T08:44:40;93653.06;;;16.81;70.72
57248;BME280;55809;46.618;10.764;2022-10-16T08:47:17;93647.56;;;17.21;69.09
57248;BME280;55809;46.618;10.764;2022-10-16T08:49:55;93645.84;;;17.80;67.33
57248;BME280;55809;46.618;10.764;2022-10-16T08:52:25;93658.00;;;18.41;64.57
57248;BME280;55809;46.618;10.764;2022-10-16T08:54:55;93654.69;;;18.79;61.68
57248;BME280;55809;46.618;10.764;2022-10-16T08:57:24;93654.34;;;19.18;60.75
57248;BME280;55809;46.618;10.764;2022-10-16T08:59:53;93650.00;;;19.47;61.77
57248;BME280;55809;46.618;10.764;2022-10-16T09:02:31;93650.13;;;19.68;59.15
57248;BME280;55809;46.618;10.764;2022-10-16T09:05:17;93653.19;;;19.83;57.06
57248;BME280;55809;46.618;10.764;2022-10-16T09:07:51;93630.84;;;19.85;55.28
57248;BME280;55809;46.618;10.764;2022-10-16T09:10:30;93641.09;;;20.06;56.78
57248;BME280;55809;46.618;10.764;2022-10-16T09:13:03;93643.28;;;20.11;56.77
57248;BME280;55809;46.618;10.764;2022-10-16T09:15:39;93642.44;;;20.36;54.76
57248;BME280;55809;46.618;10.764;2022-10-16T09:18:16;93637.28;;;20.51;55.77
57248;BME280;55809;46.618;10.764;2022-10-16T09:20:51;93636.97;;;20.71;54.47
57248;BME280;55809;46.618;10.764;2022-10-16T09:23:22;93638.53;;;20.59;54.20
57248;BME280;55809;46.618;10.764;2022-10-16T09:25:53;93630.78;;;20.58;52.86
57248;BME280;55809;46.618;10.764;2022-10-16T09:28:20;93641.13;;;20.98;50.44
57248;BME280;55809;46.618;10.764;2022-10-16T09:30:51;93631.03;;;20.95;53.60
57248;BME280;55809;46.618;10.764;2022-10-16T09:33:19;93638.09;;;21.05;51.88
57248;BME280;55809;46.618;10.764;2022-10-16T09:35:50;93636.38;;;20.98;52.10
57248;BME280;55809;46.618;10.764;2022-10-16T09:38:24;93611.94;;;21.13;50.05
57248;BME280;55809;46.618;10.764;2022-10-16T09:40:52;93639.69;;;21.15;51.36
57248;BME280;55809;46.618;10.764;2022-10-16T09:43:22;93629.72;;;20.99;50.81
57248;BME280;55809;46.618;10.764;2022-10-16T09:45:57;93627.66;;;21.13;50.01
57248;BME280;55809;46.618;10.764;2022-10-16T09:48:27;93632.47;;;21.30;49.07
57248;BME280;55809;46.618;10.764;2022-10-16T09:51:02;93626.44;;;21.36;51.16
57248;BME280;55809;46.618;10.764;2022-10-16T09:53:42;93635.34;;;21.49;50.64
57248;BME280;55809;46.618;10.764;2022-10-16T09:56:12;93630.66;;;21.68;51.14
57248;BME280;55809;46.618;10.764;2022-10-16T09:58:51;93624.88;;;21.75;49.69
57248;BME280;55809;46.618;10.764;2022-10-16T10:01:21;93601.47;;;21.61;48.91
57248;BME280;55809;46.618;10.764;2022-10-16T10:03:55;93633.19;;;21.93;44.96
57248;BME280;55809;46.618;10.764;2022-10-16T10:06:33;93607.41;;;21.50;46.16
57248;BME280;55809;46.618;10.764;2022-10-16T10:09:19;93627.78;;;21.71;46.93
57248;BME280;55809;46.618;10.764;2022-10-16T10:11:52;93627.00;;;21.71;46.55
57248;BME280;55809;46.618;10.764;2022-10-16T10:14:26;93625.31;;;21.64;47.49
57248;BME280;55809;46.618;10.764;2022-10-16T10:17:13;93621.22;;;21.78;48.21
57248;BME280;55809;46.618;10.764;2022-10-16T10:19:44;93621.59;;;21.89;48.22
57248;BME280;55809;46.618;10.764;2022-10-16T10:22:29;93623.19;;;21.68;47.47
57248;BME280;55809;46.618;10.764;2022-10-16T10:25:12;93623.50;;;21.70;46.81
57248;BME280;55809;46.618;10.764;2022-10-16T10:27:52;93623.41;;;21.83;47.54
57248;BME280;55809;46.618;10.764;2022-10-16T10:30:25;93594.81;;;21.71;46.28
57248;BME280;55809;46.618;10.764;2022-10-16T10:33:08;93592.94;;;21.59;46.28
57248;BME280;55809;46.618;10.764;2022-10-16T10:35:42;93607.81;;;21.40;45.77
57248;BME280;55809;46.618;10.764;2022-10-16T10:38:24;93608.59;;;21.40;46.28
57248;BME280;55809;46.618;10.764;2022-10-16T10:41:01;93598.53;;;21.46;44.57
57248;BME280;55809;46.618;10.764;2022-10-16T10:43:41;93600.72;;;21.61;46.45
57248;BME280;55809;46.618;10.764;2022-10-16T10:46:18;93591.41;;;21.58;46.49
57248;BME280;55809;46.618;10.764;2022-10-16T10:49:17;93596.91;;;21.58;47.85
57248;BME280;55809;46.618;10.764;2022-10-16T10:51:55;93599.31;;;21.47;47.34
57248;BME280;55809;46.618;10.764;2022-10-16T10:54:32;93589.00;;;21.29;49.06
57248;BME280;55809;46.618;10.764;2022-10-16T10:57:09;93588.66;;;21.27;48.13
57248;BME280;55809;46.618;10.764;2022-10-16T11:00:09;93579.75;;;21.45;48.95
57248;BME280;55809;46.618;10.764;2022-10-16T11:02:48;93584.53;;;21.22;50.16
57248;BME280;55809;46.618;10.764;2022-10-16T11:05:33;93576.59;;;21.24;47.26
57248;BME280;55809;46.618;10.764;2022-10-16T11:08:10;93567.94;;;20.73;50.51
57248;BME280;55809;46.618;10.764;2022-10-16T11:10:45;93569.66;;;20.79;51.67
57248;BME280;55809;46.618;10.764;2022-10-16T11:13:23;93564.06;;;20.83;49.83
57248;BME280;55809;46.618;10.764;2022-10-16T11:15:54;93560.56;;;20.92;51.12
57248;BME280;55809;46.618;10.764;2022-10-16T11:18:29;93565.03;;;20.98;50.37
57248;BME280;55809;46.618;10.764;2022-10-16T11:21:01;93554.94;;;20.95;49.15
57248;BME280;55809;46.618;10.764;2022-10-16T11:23:33;93553.66;;;21.09;49.02
57248;BME280;55809;46.618;10.764;2022-10-16T11:26:05;93555.19;;;21.10;50.43
57248;BME280;55809;46.618;10.764;2022-10-16T11:28:39;93551.22;;;21.11;48.92
57248;BME280;55809;46.618;10.764;2022-10-16T11:31:13;93553.53;;;21.13;51.49
57248;BME280;55809;46.618;10.764;2022-10-16T11:33:46;93543.44;;;21.10;48.94
57248;BME280;55809;46.618;10.764;2022-10-16T11:36:16;93539.16;;;21.08;47.57
57248;BME280;55809;46.618;10.764;2022-10-16T11:38:53;93541.00;;;21.12;48.16
57248;BME280;55809;46.618;10.764;2022-10-16T11:41:27;93539.56;;;20.98;48.31
57248;BME280;55809;46.618;10.764;2022-10-16T11:44:14;93538.66;;;21.01;49.00
57248;BME280;55809;46.618;10.764;2022-10-16T11:46:49;93526.53;;;21.11;49.14
57248;BME280;55809;46.618;10.764;2022-10-16T11:49:21;93533.59;;;21.30;49.54
57248;BME280;55809;46.618;10.764;2022-10-16T11:51:55;93537.75;;;21.35;49.79
57248;BME280;55809;46.618;10.764;2022-10-16T11:54:32;93534.78;;;21.61;49.07
57248;BME280;55809;46.618;10.764;2022-10-16T11:57:10;93533.94;;;21.33;48.94
57248;BME280;55809;46.618;10.764;2022-10-16T11:59:43;93529.88;;;21.15;48.19
57248;BME280;55809;46.618;10.764;2022-10-16T12:02:31;93533.94;;;21.01;51.09
57248;BME280;55809;46.618;10.764;2022-10-16T12:05:06;93539.84;;;20.91;49.84
57248;BME280;55809;46.618;10.764;2022-10-16T12:07:43;93539.09;;;20.90;50.38
57248;BME280;55809;46.618;10.764;2022-10-16T12:10:20;93535.19;;;20.78;51.55
57248;BME280;55809;46.618;10.764;2022-10-16T12:12:50;93528.63;;;20.76;51.75
57248;BME280;55809;46.618;10.764;2022-10-16T12:15:23;93533.72;;;20.87;51.82
57248;BME280;55809;46.618;10.764;2022-10-16T12:17:52;93528.06;;;20.81;50.98
57248;BME280;55809;46.618;10.764;2022-10-16T12:20:26;93509.13;;;20.52;51.30
57248;BME280;55809;46.618;10.764;2022-10-16T12:22:57;93532.91;;;20.33;52.43
57248;BME280;55809;46.618;10.764;2022-10-16T12:25:27;93533.78;;;20.30;52.92
57248;BME280;55809;46.618;10.764;2022-10-16T12:28:02;93533.47;;;20.28;52.32
57248;BME280;55809;46.618;10.764;2022-10-16T12:30:32;93528.25;;;20.21;51.88
57248;BME280;55809;46.618;10.764;2022-10-16T12:33:01;93524.56;;;20.14;51.67
57248;BME280;55809;46.618;10.764;2022-10-16T12:35:30;93523.06;;;20.01;53.12
57248;BME280;55809;46.618;10.764;2022-10-16T12:38:07;93523.25;;;19.84;52.22
57248;BME280;55809;46.618;10.764;2022-10-16T12:40:37;93524.25;;;19.52;53.88
57248;BME280;55809;46.618;10.764;2022-10-16T12:43:25;93529.09;;;19.35;54.68
57248;BME280;55809;46.618;10.764;2022-10-16T12:46:01;93527.25;;;19.19;57.38
57248;BME280;55809;46.618;10.764;2022-10-16T12:48:29;93515.31;;;19.13;56.12
57248;BME280;55809;46.618;10.764;2022-10-16T12:50:56;93515.84;;;19.08;56.94
57248;BME280;55809;46.618;10.764;2022-10-16T12:53:24;93511.19;;;18.96;57.04
57248;BME280;55809;46.618;10.764;2022-10-16T12:56:03;93518.94;;;18.97;56.81
57248;BME280;55809;46.618;10.764;2022-10-16T12:58:45;93522.88;;;18.96;55.85
57248;BME280;55809;46.618;10.764;2022-10-16T13:04:37;93521.13;;;18.90;55.29
57248;BME280;55809;46.618;10.764;2022-10-16T13:07:24;93526.38;;;18.84;56.94
57248;BME280;55809;46.618;10.764;2022-10-16T13:10:05;93527.44;;;18.74;57.05
57248;BME280;55809;46.618;10.764;2022-10-16T13:12:55;93517.81;;;18.69;56.10